Time;durP1;ratioP1;P1;durP2;ratioP2;P2;SDS_P1;SDS_P2;PMS_P1;PMS_P2;Temp;Humidity;BMP_temperature;BMP_pressure;BME280_temperature;BME280_humidity;BME280_pressure;Samples;Min_cycle;Max_cycle;Signal;HPM_P1;HPM_P2
2021/08/21 00:00:07;;;;;;;58.57;2.80;;;16.70;1.00;;;;;;5071594;28;20537;-70
2021/08/21 00:02:35;;;;;;;58.57;3.40;;;16.70;1.00;;;;;;5072103;28;20900;-70
2021/08/21 00:05:02;;;;;;;58.40;3.13;;;16.60;1.00;;;;;;5071717;28;20461;-70
2021/08/21 00:07:29;;;;;;;58.07;2.90;;;16.60;1.00;;;;;;5072006;28;20545;-70
2021/08/21 00:09:58;;;;;;;58.57;3.00;;;16.50;1.00;;;;;;5071885;28;20453;-70
2021/08/21 00:12:25;;;;;;;58.27;3.27;;;16.50;1.00;;;;;;5071896;28;20466;-70
2021/08/21 00:14:53;;;;;;;58.27;3.00;;;16.50;1.00;;;;;;5071925;28;20570;-70
2021/08/21 00:17:20;;;;;;;58.33;2.70;;;16.50;1.00;;;;;;5071713;28;20453;-70
2021/08/21 00:19:47;;;;;;;58.07;3.10;;;16.40;1.00;;;;;;5071622;28;20448;-70
2021/08/21 00:22:14;;;;;;;59.20;2.93;;;16.40;1.00;;;;;;5071686;28;20843;-70
2021/08/21 00:24:41;;;;;;;58.70;3.07;;;16.40;1.00;;;;;;5071925;28;20883;-70
2021/08/21 00:27:09;;;;;;;58.23;2.70;;;16.40;1.00;;;;;;5071557;28;20540;-70
2021/08/21 00:29:36;;;;;;;58.27;2.63;;;16.40;1.00;;;;;;5071585;28;20531;-70
2021/08/21 00:32:04;;;;;;;58.60;3.10;;;16.30;1.00;;;;;;5072085;28;21035;-70
2021/08/21 00:34:31;;;;;;;58.00;2.73;;;16.30;1.00;;;;;;5075554;28;20571;-70
2021/08/21 00:36:58;;;;;;;58.70;3.40;;;16.30;1.00;;;;;;5075509;28;20472;-70
2021/08/21 00:39:25;;;;;;;58.57;2.90;;;16.20;1.00;;;;;;5075269;28;20448;-70
2021/08/21 00:41:52;;;;;;;58.17;2.80;;;16.20;1.00;;;;;;5075407;28;20476;-70
2021/08/21 00:44:21;;;;;;;58.57;2.70;;;16.20;1.00;;;;;;5075422;28;20523;-70
2021/08/21 00:47:00;;;;;;;58.30;2.73;;;16.10;1.00;;;;;;5075586;28;20546;-70
2021/08/21 00:49:27;;;;;;;58.60;3.30;;;16.10;1.00;;;;;;5075096;28;20495;-70
2021/08/21 00:51:54;;;;;;;60.40;3.87;;;16.10;1.00;;;;;;5075154;28;20472;-70
2021/08/21 00:54:21;;;;;;;58.27;2.87;;;16.10;1.00;;;;;;5075310;28;20480;-70
2021/08/21 00:56:48;;;;;;;58.57;2.90;;;16.10;1.00;;;;;;5075551;28;20452;-70
2021/08/21 00:59:15;;;;;;;58.37;3.20;;;16.00;1.00;;;;;;5075079;28;20451;-70
2021/08/21 01:01:44;;;;;;;58.27;2.70;;;16.00;1.00;;;;;;5075156;28;20558;-70
2021/08/21 01:04:11;;;;;;;58.07;2.50;;;16.00;1.00;;;;;;5074957;28;20550;-70
2021/08/21 01:06:38;;;;;;;59.30;3.40;;;15.90;1.00;;;;;;5074793;28;20448;-70
2021/08/21 01:09:05;;;;;;;58.27;2.60;;;15.90;1.00;;;;;;5074787;28;21027;-70
2021/08/21 01:11:33;;;;;;;58.00;2.60;;;15.80;1.00;;;;;;5075020;28;20460;-70
2021/08/21 01:14:00;;;;;;;59.07;2.80;;;15.80;1.00;;;;;;5075058;28;20485;-70
2021/08/21 01:16:28;;;;;;;58.30;2.50;;;15.80;1.00;;;;;;5074934;28;20475;-70
2021/08/21 01:18:58;;;;;;;58.47;2.83;;;15.80;1.00;;;;;;5074770;28;20531;-70
2021/08/21 01:21:25;;;;;;;58.47;2.70;;;15.70;1.00;;;;;;5074798;28;20504;-70
2021/08/21 01:23:53;;;;;;;58.50;3.30;;;15.70;1.00;;;;;;5074863;28;20446;-70
2021/08/21 01:26:20;;;;;;;58.43;2.80;;;15.60;1.00;;;;;;5074709;28;20448;-70
2021/08/21 01:28:48;;;;;;;58.83;3.67;;;15.50;1.00;;;;;;5074706;28;20451;-70
2021/08/21 01:31:15;;;;;;;59.10;3.90;;;15.50;1.00;;;;;;5074271;28;20546;-70
2021/08/21 01:33:42;;;;;;;58.80;2.90;;;15.50;1.00;;;;;;5074400;28;20482;-70
2021/08/21 01:36:10;;;;;;;58.27;2.87;;;15.50;1.00;;;;;;5074382;28;20514;-70
2021/08/21 01:38:36;;;;;;;58.90;3.20;;;15.50;1.00;;;;;;5073152;28;20867;-70
2021/08/21 01:41:03;;;;;;;58.67;3.03;;;15.40;1.00;;;;;;5074124;28;20444;-70
2021/08/21 01:43:30;;;;;;;58.07;2.60;;;15.40;1.00;;;;;;5073991;28;21010;-70
2021/08/21 01:45:58;;;;;;;58.40;2.87;;;15.30;1.00;;;;;;5074124;28;20919;-70
2021/08/21 01:48:25;;;;;;;58.37;2.73;;;15.30;1.00;;;;;;5074528;28;20816;-70
2021/08/21 01:50:52;;;;;;;58.87;3.37;;;15.30;1.00;;;;;;5073877;28;20483;-70
2021/08/21 01:53:19;;;;;;;58.20;2.47;;;15.30;1.00;;;;;;5074002;28;20552;-70
2021/08/21 01:55:47;;;;;;;58.97;3.10;;;15.30;1.00;;;;;;5074548;28;20535;-70
2021/08/21 01:58:20;;;;;;;59.07;3.90;;;15.30;1.00;;;;;;5074320;28;20542;-70
2021/08/21 02:00:47;;;;;;;58.47;2.50;;;15.30;1.00;;;;;;5073982;28;20456;-70
2021/08/21 02:03:16;;;;;;;58.50;2.60;;;15.30;1.00;;;;;;5073851;28;20479;-70
2021/08/21 02:05:43;;;;;;;59.10;3.43;;;15.30;1.00;;;;;;5073913;28;20487;-70
2021/08/21 02:08:09;;;;;;;58.17;3.10;;;15.30;1.00;;;;;;5074305;28;20887;-70
2021/08/21 02:10:36;;;;;;;58.60;2.77;;;15.20;1.00;;;;;;5073862;28;20444;-70
2021/08/21 02:13:04;;;;;;;58.47;2.50;;;15.20;1.00;;;;;;5073897;28;20472;-70
2021/08/21 02:15:30;;;;;;;58.90;3.23;;;15.20;1.00;;;;;;5074118;28;20439;-70
2021/08/21 02:17:57;;;;;;;58.00;2.70;;;15.20;1.00;;;;;;5073710;28;20539;-70
2021/08/21 02:20:26;;;;;;;59.43;3.37;;;15.20;1.00;;;;;;5073295;28;20476;-70
2021/08/21 02:22:53;;;;;;;58.60;3.00;;;15.20;1.00;;;;;;5073952;28;20475;-70
2021/08/21 02:25:20;;;;;;;58.60;2.97;;;15.20;1.00;;;;;;5073570;28;20489;-70
2021/08/21 02:27:56;;;;;;;58.33;3.20;;;15.10;1.00;;;;;;5073672;28;20534;-70
2021/08/21 02:30:23;;;;;;;58.17;2.63;;;15.00;1.00;;;;;;5073240;28;20994;-70
2021/08/21 02:32:50;;;;;;;58.60;3.00;;;15.00;1.00;;;;;;5073204;28;20464;-70
2021/08/21 02:35:17;;;;;;;58.47;2.90;;;15.00;1.00;;;;;;5073845;28;20449;-70
2021/08/21 02:37:45;;;;;;;58.37;2.80;;;15.00;1.00;;;;;;5073379;28;20444;-70
2021/08/21 02:40:14;;;;;;;58.80;2.97;;;15.00;1.00;;;;;;5073024;28;20534;-70
2021/08/21 02:42:40;;;;;;;58.80;3.93;;;15.00;1.00;;;;;;5073688;28;20475;-70
2021/08/21 02:45:09;;;;;;;58.87;2.80;;;15.10;1.00;;;;;;5073366;28;20483;-70
2021/08/21 02:47:36;;;;;;;58.40;3.20;;;15.10;1.00;;;;;;5072958;28;20458;-70
2021/08/21 02:50:03;;;;;;;58.70;2.67;;;15.10;1.00;;;;;;5073032;28;20450;-70
2021/08/21 02:52:30;;;;;;;58.17;2.90;;;15.10;1.00;;;;;;5073144;28;20843;-70
2021/08/21 02:54:58;;;;;;;58.33;2.67;;;15.10;1.00;;;;;;5072849;28;20440;-70
2021/08/21 02:57:25;;;;;;;58.43;2.60;;;15.10;1.00;;;;;;5072064;28;20451;-70
2021/08/21 02:59:52;;;;;;;58.17;2.60;;;15.10;1.00;;;;;;5072513;28;20534;-70
2021/08/21 03:02:19;;;;;;;58.33;2.70;;;15.10;1.00;;;;;;5072796;28;21018;-70
2021/08/21 03:04:45;;;;;;;58.17;2.70;;;15.10;1.00;;;;;;5072493;28;20575;-70
2021/08/21 03:07:12;;;;;;;58.50;2.80;;;15.10;1.00;;;;;;5072768;28;20537;-70
2021/08/21 03:09:39;;;;;;;59.43;2.70;;;15.10;1.00;;;;;;5072443;28;20451;-70
2021/08/21 03:12:07;;;;;;;58.80;3.03;;;15.10;1.00;;;;;;5072773;28;20470;-70
2021/08/21 03:14:34;;;;;;;58.60;3.00;;;15.00;1.00;;;;;;5072468;28;20447;-70
2021/08/21 03:17:01;;;;;;;58.57;3.10;;;14.90;1.00;;;;;;5072674;28;20451;-70
2021/08/21 03:19:28;;;;;;;58.27;2.90;;;14.90;1.00;;;;;;5072430;28;20977;-70
2021/08/21 03:21:55;;;;;;;58.33;2.70;;;14.90;1.00;;;;;;5072351;28;20499;-70
2021/08/21 03:24:22;;;;;;;58.60;2.80;;;14.80;1.00;;;;;;5072380;28;20566;-70
2021/08/21 03:26:48;;;;;;;58.20;2.80;;;14.80;1.00;;;;;;5072345;28;20443;-70
2021/08/21 03:29:17;;;;;;;58.47;2.80;;;14.80;1.00;;;;;;5072314;28;20493;-70
2021/08/21 03:31:43;;;;;;;58.43;2.80;;;14.80;1.00;;;;;;5072283;28;21006;-70
2021/08/21 03:34:10;;;;;;;58.17;2.80;;;14.80;1.00;;;;;;5072247;28;20449;-70
2021/08/21 03:36:37;;;;;;;58.27;2.90;;;14.80;1.00;;;;;;5072153;28;20449;-70
2021/08/21 03:39:04;;;;;;;58.37;2.60;;;14.70;1.00;;;;;;5072158;28;20447;-70
2021/08/21 03:41:31;;;;;;;58.07;2.60;;;14.70;1.00;;;;;;5072019;28;20515;-70
2021/08/21 03:43:58;;;;;;;58.43;2.97;;;14.70;1.00;;;;;;5072171;28;20455;-70
2021/08/21 03:46:26;;;;;;;58.67;3.20;;;14.60;1.00;;;;;;5072254;28;20905;-70
2021/08/21 03:48:53;;;;;;;58.50;3.00;;;14.60;1.00;;;;;;5072133;28;20878;-70
2021/08/21 03:51:19;;;;;;;58.33;2.70;;;14.60;1.00;;;;;;5071716;28;20994;-70
2021/08/21 03:53:46;;;;;;;58.57;2.80;;;14.60;1.00;;;;;;5072253;28;20457;-70
2021/08/21 03:56:13;;;;;;;58.60;2.90;;;14.60;1.00;;;;;;5071873;28;20448;-70
2021/08/21 03:58:40;;;;;;;59.00;3.10;;;14.60;1.00;;;;;;5072108;28;20452;-70
2021/08/21 04:01:07;;;;;;;58.43;2.87;;;14.50;1.00;;;;;;5071645;28;20454;-70
2021/08/21 04:03:36;;;;;;;58.57;3.33;;;14.50;1.00;;;;;;5071880;28;20455;-70
2021/08/21 04:06:03;;;;;;;58.43;3.10;;;14.50;1.00;;;;;;5072197;28;20493;-70
2021/08/21 04:08:30;;;;;;;58.63;3.00;;;14.50;1.00;;;;;;5071548;28;20452;-70
2021/08/21 04:10:57;;;;;;;58.53;2.93;;;14.50;1.00;;;;;;5071778;28;20868;-70
2021/08/21 04:13:24;;;;;;;58.67;3.00;;;14.40;1.00;;;;;;5071860;28;20985;-70
2021/08/21 04:15:50;;;;;;;58.57;2.67;;;14.40;1.00;;;;;;5071842;28;20450;-70
2021/08/21 04:18:17;;;;;;;58.33;2.80;;;14.40;1.00;;;;;;5071807;28;20479;-70
2021/08/21 04:20:45;;;;;;;58.83;3.10;;;14.40;1.00;;;;;;5071528;28;20450;-70
2021/08/21 04:23:12;;;;;;;58.77;2.70;;;14.40;1.00;;;;;;5071891;28;20470;-70
2021/08/21 04:25:39;;;;;;;58.70;3.10;;;14.40;1.00;;;;;;5071952;28;20493;-70
2021/08/21 04:28:06;;;;;;;58.70;2.80;;;14.40;1.00;;;;;;5071717;28;20450;-70
2021/08/21 04:30:33;;;;;;;58.87;3.60;;;14.40;1.00;;;;;;5071539;28;20543;-70
2021/08/21 04:33:00;;;;;;;58.37;2.80;;;14.40;1.00;;;;;;5071627;28;20524;-70
2021/08/21 04:35:27;;;;;;;58.50;2.90;;;14.40;1.00;;;;;;5071650;28;20445;-70
2021/08/21 04:37:55;;;;;;;58.77;3.10;;;14.50;1.00;;;;;;5071394;28;20530;-70
2021/08/21 04:40:22;;;;;;;58.67;3.20;;;14.50;1.00;;;;;;5071209;28;20449;-70
2021/08/21 04:42:49;;;;;;;58.27;3.00;;;14.50;1.00;;;;;;5071751;28;20467;-70
2021/08/21 04:45:16;;;;;;;58.03;2.60;;;14.50;1.00;;;;;;5071832;28;20565;-70
2021/08/21 04:47:42;;;;;;;58.27;2.80;;;14.50;1.00;;;;;;5071419;28;20453;-70
2021/08/21 04:50:11;;;;;;;58.47;2.80;;;14.60;1.00;;;;;;5071735;28;20506;-70
2021/08/21 04:52:37;;;;;;;58.87;3.20;;;14.60;1.00;;;;;;5071528;28;20467;-70
2021/08/21 04:55:06;;;;;;;58.50;3.40;;;14.60;1.00;;;;;;5071414;28;20538;-70
2021/08/21 04:57:33;;;;;;;58.40;3.10;;;14.60;1.00;;;;;;5071475;28;20480;-70
2021/08/21 05:00:02;;;;;;;58.60;2.90;;;14.60;1.00;;;;;;5071759;28;20450;-70
2021/08/21 05:02:29;;;;;;;58.77;3.10;;;14.60;1.00;;;;;;5071245;28;20865;-70
2021/08/21 05:04:56;;;;;;;58.57;2.83;;;14.70;1.00;;;;;;5071057;28;20487;-70
2021/08/21 05:07:23;;;;;;;58.80;3.03;;;14.70;1.00;;;;;;5071504;28;20480;-70
2021/08/21 05:09:49;;;;;;;58.30;2.70;;;14.70;1.00;;;;;;5071115;28;20534;-70
2021/08/21 05:12:18;;;;;;;59.10;3.10;;;14.70;1.00;;;;;;5071265;28;20486;-70
2021/08/21 05:14:44;;;;;;;58.60;3.57;;;14.80;1.00;;;;;;5071364;28;21030;-70
2021/08/21 05:17:11;;;;;;;58.47;2.80;;;14.80;1.00;;;;;;5071163;28;20444;-70
2021/08/21 05:19:40;;;;;;;59.20;3.50;;;14.80;1.00;;;;;;5072133;28;20483;-70
2021/08/21 05:22:21;;;;;;;59.07;3.67;;;14.90;1.00;;;;;;5074896;28;20478;-70
2021/08/21 05:24:48;;;;;;;58.40;2.90;;;14.90;1.00;;;;;;5074902;28;20816;-70
2021/08/21 05:27:17;;;;;;;58.47;3.20;;;15.00;1.00;;;;;;5074672;28;21034;-70
2021/08/21 05:29:44;;;;;;;58.67;3.10;;;15.00;1.00;;;;;;5074196;28;20538;-70
2021/08/21 05:32:11;;;;;;;58.20;2.63;;;15.10;1.00;;;;;;5074275;28;20467;-70
2021/08/21 05:34:38;;;;;;;58.47;2.60;;;15.20;1.00;;;;;;5074608;28;20539;-70
2021/08/21 05:37:06;;;;;;;58.47;2.90;;;15.20;1.00;;;;;;5074370;28;20958;-70
2021/08/21 05:39:33;;;;;;;58.47;2.90;;;15.20;1.00;;;;;;5074121;28;20450;-70
2021/08/21 05:42:00;;;;;;;59.20;3.13;;;15.30;1.00;;;;;;5074234;28;20913;-70
2021/08/21 05:44:28;;;;;;;58.17;3.00;;;15.30;1.00;;;;;;5074180;28;20446;-70
2021/08/21 05:46:55;;;;;;;58.67;2.77;;;15.40;1.00;;;;;;5074198;28;20519;-70
2021/08/21 05:49:22;;;;;;;58.07;2.70;;;15.40;1.00;;;;;;5074122;28;20530;-70
2021/08/21 05:51:49;;;;;;;58.27;2.70;;;15.40;1.00;;;;;;5074046;28;20554;-70
2021/08/21 05:54:15;;;;;;;58.13;2.60;;;15.40;1.00;;;;;;5074008;28;20454;-70
2021/08/21 05:56:42;;;;;;;58.53;2.80;;;15.40;1.00;;;;;;5073877;28;20475;-70
2021/08/21 05:59:09;;;;;;;57.87;2.60;;;15.50;1.00;;;;;;5073404;28;20444;-70
2021/08/21 06:01:38;;;;;;;58.20;2.97;;;15.50;1.00;;;;;;5073836;28;20557;-70
2021/08/21 06:04:06;;;;;;;58.40;2.93;;;15.60;1.00;;;;;;5073920;28;20459;-70
2021/08/21 06:06:34;;;;;;;58.03;2.50;;;15.60;1.00;;;;;;5073614;28;20484;-70
2021/08/21 06:09:00;;;;;;;57.93;2.50;;;15.70;1.00;;;;;;5073609;28;20453;-70
2021/08/21 06:11:27;;;;;;;58.07;2.73;;;15.70;1.00;;;;;;5073427;28;20463;-70
2021/08/21 06:13:54;;;;;;;58.37;2.93;;;15.80;1.00;;;;;;5073916;28;20537;-70
2021/08/21 06:16:21;;;;;;;58.40;3.13;;;15.90;1.00;;;;;;5073822;28;20448;-70
2021/08/21 06:18:49;;;;;;;57.97;2.73;;;15.90;1.00;;;;;;5073713;28;20539;-70
2021/08/21 06:21:16;;;;;;;58.40;2.60;;;16.00;1.00;;;;;;5073500;28;20560;-70
2021/08/21 06:23:43;;;;;;;58.07;2.60;;;16.10;1.00;;;;;;5073807;28;20536;-70
2021/08/21 06:26:10;;;;;;;58.20;2.50;;;16.20;1.00;;;;;;5073491;28;20575;-70
2021/08/21 06:28:37;;;;;;;58.20;2.60;;;16.20;1.00;;;;;;5073437;28;20938;-70
2021/08/21 06:31:04;;;;;;;58.87;2.90;;;16.30;1.00;;;;;;5073105;28;20549;-70
2021/08/21 06:33:31;;;;;;;58.37;3.20;;;16.30;1.00;;;;;;5073583;28;20446;-70
2021/08/21 06:36:00;;;;;;;58.07;2.50;;;16.40;1.00;;;;;;5073431;28;20889;-70
2021/08/21 06:38:26;;;;;;;58.13;2.83;;;16.40;1.00;;;;;;5073338;28;20979;-70
2021/08/21 06:40:53;;;;;;;58.47;3.00;;;16.40;1.00;;;;;;5073081;28;20446;-70
2021/08/21 06:43:20;;;;;;;58.03;2.50;;;16.40;1.00;;;;;;5073334;28;20542;-70
2021/08/21 06:45:47;;;;;;;58.30;2.70;;;16.50;1.00;;;;;;5073184;28;20477;-70
2021/08/21 06:48:14;;;;;;;58.70;3.17;;;16.50;1.00;;;;;;5073238;28;20476;-70
2021/08/21 06:50:41;;;;;;;57.70;2.60;;;16.60;1.00;;;;;;5072884;28;20532;-70
2021/08/21 06:53:09;;;;;;;59.63;3.10;;;16.60;1.00;;;;;;5072842;28;21014;-70
2021/08/21 06:55:36;;;;;;;58.13;2.60;;;16.60;1.00;;;;;;5073083;28;20870;-70
2021/08/21 06:58:02;;;;;;;57.97;2.47;;;16.70;1.00;;;;;;5073088;28;20540;-70
2021/08/21 07:00:29;;;;;;;57.90;2.63;;;16.70;1.00;;;;;;5072775;28;20449;-70
2021/08/21 07:02:57;;;;;;;58.27;2.43;;;16.80;1.00;;;;;;5072740;28;20885;-70
2021/08/21 07:05:24;;;;;;;58.50;3.10;;;16.80;1.00;;;;;;5072920;28;20884;-70
2021/08/21 07:07:50;;;;;;;58.27;2.60;;;16.90;1.00;;;;;;5073069;28;20441;-70
2021/08/21 07:10:19;;;;;;;58.07;2.57;;;16.90;1.00;;;;;;5072601;28;20890;-70
2021/08/21 07:12:45;;;;;;;58.20;2.90;;;17.00;1.00;;;;;;5072400;28;20472;-70
2021/08/21 07:15:13;;;;;;;58.10;2.50;;;17.10;1.00;;;;;;5072724;28;20536;-70
2021/08/21 07:17:40;;;;;;;58.47;3.07;;;17.20;1.00;;;;;;5072697;28;20452;-70
2021/08/21 07:20:08;;;;;;;58.13;2.50;;;17.30;1.00;;;;;;5072360;28;20446;-70
2021/08/21 07:22:34;;;;;;;57.83;2.53;;;17.40;1.00;;;;;;5072352;28;20470;-70
2021/08/21 07:25:01;;;;;;;58.97;3.47;;;17.40;1.00;;;;;;5072505;28;20991;-70
2021/08/21 07:27:29;;;;;;;58.23;2.80;;;17.50;1.00;;;;;;5072330;28;20532;-70
2021/08/21 07:29:56;;;;;;;58.47;2.93;;;17.60;1.00;;;;;;5071982;28;20458;-70
2021/08/21 07:32:23;;;;;;;58.43;3.17;;;17.60;1.00;;;;;;5072364;28;20549;-70
2021/08/21 07:34:50;;;;;;;58.30;3.10;;;17.70;1.00;;;;;;5072134;28;20454;-70
2021/08/21 07:37:17;;;;;;;58.17;2.63;;;17.80;1.00;;;;;;5072474;28;20451;-70
2021/08/21 07:39:43;;;;;;;57.93;2.70;;;17.80;1.00;;;;;;5072065;28;20533;-70
2021/08/21 07:42:10;;;;;;;58.30;2.80;;;18.00;1.00;;;;;;5071492;28;20994;-70
2021/08/21 07:44:38;;;;;;;58.87;3.07;;;18.00;1.00;;;;;;5072200;28;20490;-70
2021/08/21 07:47:05;;;;;;;58.17;3.20;;;18.20;1.00;;;;;;5071941;28;20487;-70
2021/08/21 07:49:32;;;;;;;57.63;2.60;;;18.30;1.00;;;;;;5071775;28;20450;-70
2021/08/21 07:51:59;;;;;;;58.03;2.80;;;18.30;1.00;;;;;;5071997;28;20560;-70
2021/08/21 07:54:26;;;;;;;58.23;2.80;;;18.50;1.00;;;;;;5072201;28;20461;-70
2021/08/21 07:56:53;;;;;;;58.37;3.40;;;18.60;1.00;;;;;;5071915;28;20485;-70
2021/08/21 07:59:20;;;;;;;58.40;2.70;;;18.80;1.00;;;;;;5071753;28;20800;-70
2021/08/21 08:01:48;;;;;;;58.10;2.60;;;19.00;1.00;;;;;;5071811;28;20497;-70
2021/08/21 08:04:15;;;;;;;57.67;2.40;;;19.10;1.00;;;;;;5071860;28;20551;-71
2021/08/21 08:06:42;;;;;;;58.40;2.80;;;19.30;1.00;;;;;;5071942;28;20535;-71
2021/08/21 08:09:08;;;;;;;58.03;2.63;;;19.40;1.00;;;;;;5071721;28;20497;-70
2021/08/21 08:11:35;;;;;;;58.17;2.50;;;19.60;1.00;;;;;;5071757;28;20509;-70
2021/08/21 08:14:02;;;;;;;58.07;2.40;;;19.70;1.00;;;;;;5071842;28;20534;-70
2021/08/21 08:16:29;;;;;;;58.10;2.60;;;19.80;1.00;;;;;;5071589;28;20443;-71
2021/08/21 08:18:57;;;;;;;58.70;3.37;;;19.90;1.00;;;;;;5072259;28;20444;-71
2021/08/21 08:21:24;;;;;;;57.87;2.70;;;20.10;1.00;;;;;;5071814;28;20475;-70
2021/08/21 08:23:52;;;;;;;58.17;2.40;;;20.20;1.00;;;;;;5071974;28;20525;-70
2021/08/21 08:26:19;;;;;;;58.03;2.60;;;20.30;1.00;;;;;;5071714;28;20569;-70
2021/08/21 08:28:46;;;;;;;58.03;2.97;;;20.50;1.00;;;;;;5071676;28;20980;-70
2021/08/21 08:31:12;;;;;;;58.30;2.43;;;20.60;1.00;;;;;;5071398;28;20452;-70
2021/08/21 08:33:39;;;;;;;58.30;2.50;;;20.80;1.00;;;;;;5071973;28;20473;-70
2021/08/21 08:36:08;;;;;;;58.40;3.07;;;21.00;1.00;;;;;;5071682;28;20893;-70
2021/08/21 08:38:35;;;;;;;58.27;2.40;;;21.20;1.00;;;;;;5071924;28;20448;-70
2021/08/21 08:41:02;;;;;;;58.17;2.60;;;21.30;1.00;;;;;;5071214;28;20505;-70
2021/08/21 08:43:30;;;;;;;58.13;2.90;;;21.40;1.00;;;;;;5071493;28;20451;-70
2021/08/21 08:45:56;;;;;;;57.87;2.63;;;21.50;1.00;;;;;;5071528;28;20445;-70
2021/08/21 08:48:24;;;;;;;58.17;3.03;;;21.60;1.00;;;;;;5071859;28;20479;-70
2021/08/21 08:50:51;;;;;;;58.07;2.90;;;21.80;1.00;;;;;;5071318;28;20825;-70
2021/08/21 08:53:19;;;;;;;57.97;2.80;;;22.00;1.00;;;;;;5071418;28;20841;-70
2021/08/21 08:55:46;;;;;;;58.00;2.60;;;22.00;1.00;;;;;;5074759;28;20475;-70
2021/08/21 08:58:14;;;;;;;57.50;2.60;;;22.10;1.00;;;;;;5075072;28;20534;-70
2021/08/21 09:00:41;;;;;;;58.57;2.87;;;22.30;1.00;;;;;;5075212;28;20450;-70
2021/08/21 09:03:19;;;;;;;57.97;2.50;;;22.40;1.00;;;;;;5074960;28;20553;-70
2021/08/21 09:05:47;;;;;;;58.10;2.67;;;22.70;1.00;;;;;;5075178;28;20447;-70
2021/08/21 09:08:23;;;;;;;57.87;2.50;;;22.90;1.00;;;;;;5074945;28;20451;-70
2021/08/21 09:10:50;;;;;;;58.27;2.90;;;23.10;1.00;;;;;;5074651;28;20454;-70
2021/08/21 09:13:19;;;;;;;58.13;2.53;;;23.30;1.00;;;;;;5075132;28;20526;-70
2021/08/21 09:15:48;;;;;;;58.90;2.80;;;23.50;1.00;;;;;;5074961;28;20453;-70
2021/08/21 09:18:17;;;;;;;58.17;2.30;;;23.60;1.00;;;;;;5074791;28;20455;-69
2021/08/21 09:20:59;;;;;;;58.30;2.77;;;23.80;1.00;;;;;;5074536;28;20483;-69
2021/08/21 09:23:30;;;;;;;58.43;2.93;;;24.00;1.00;;;;;;5074673;28;20875;-69
2021/08/21 09:26:06;;;;;;;58.17;2.70;;;24.10;1.00;;;;;;5074877;28;20887;-70
2021/08/21 09:28:33;;;;;;;57.77;2.60;;;24.30;1.00;;;;;;5074742;28;20867;-69
2021/08/21 09:31:03;;;;;;;59.00;2.60;;;24.50;1.00;;;;;;5074251;28;21030;-69
2021/08/21 09:33:30;;;;;;;58.13;2.90;;;24.60;1.00;;;;;;5074536;28;20539;-69
2021/08/21 09:35:57;;;;;;;60.13;3.27;;;24.80;1.00;;;;;;5074366;28;20538;-69
2021/08/21 09:38:27;;;;;;;58.57;2.90;;;24.90;1.00;;;;;;5074609;28;20457;-69
2021/08/21 09:41:01;;;;;;;58.07;2.70;;;25.10;1.00;;;;;;5074260;28;20531;-69
2021/08/21 09:43:32;;;;;;;58.17;2.40;;;25.20;1.00;;;;;;5074579;28;20558;-70
2021/08/21 09:46:13;;;;;;;58.67;2.63;;;25.50;1.00;;;;;;5074209;28;20444;-70
2021/08/21 09:48:58;;;;;;;57.77;2.37;;;25.70;1.00;;;;;;5074640;28;20448;-70
2021/08/21 09:51:47;;;;;;;58.53;2.60;;;25.70;1.00;;;;;;5074287;28;20555;-70
2021/08/21 09:54:17;;;;;;;58.00;2.80;;;25.90;1.00;;;;;;5070189;28;20797;-70
2021/08/21 09:56:52;;;;;;;58.80;2.73;;;26.20;1.00;;;;;;5074022;28;20441;-70
2021/08/21 09:59:19;;;;;;;58.20;2.80;;;26.40;1.00;;;;;;5074095;28;20527;-70
2021/08/21 10:01:47;;;;;;;58.50;2.50;;;26.70;1.00;;;;;;5074192;28;20901;-70
2021/08/21 10:04:14;;;;;;;58.00;2.30;;;27.00;1.00;;;;;;5074169;28;20546;-70
2021/08/21 10:06:41;;;;;;;59.60;2.80;;;27.20;1.00;;;;;;5073460;28;20994;-70
2021/08/21 10:09:09;;;;;;;57.97;2.40;;;27.30;1.00;;;;;;5073707;28;20459;-70
2021/08/21 10:11:36;;;;;;;58.10;2.43;;;27.80;1.00;;;;;;5074094;28;20468;-70
2021/08/21 10:14:05;;;;;;;57.87;3.13;;;28.90;1.00;;;;;;5074008;28;20448;-70
2021/08/21 10:16:33;;;;;;;58.30;2.90;;;30.10;1.00;;;;;;5073758;28;20544;-70
2021/08/21 10:19:01;;;;;;;58.00;2.50;;;31.00;1.00;;;;;;5073657;28;20491;-70
2021/08/21 10:21:28;;;;;;;57.57;2.30;;;32.00;1.00;;;;;;5073390;28;20997;-70
2021/08/21 10:23:56;;;;;;;57.50;2.30;;;32.80;1.00;;;;;;5073758;28;20448;-70
2021/08/21 10:26:28;;;;;;;57.27;2.20;;;33.30;1.00;;;;;;5073623;28;20448;-70
2021/08/21 10:28:58;;;;;;;57.70;2.77;;;33.70;1.00;;;;;;5073482;28;20508;-70
2021/08/21 10:31:42;;;;;;;58.83;3.50;;;34.30;1.00;;;;;;5073222;28;20474;-70
2021/08/21 10:34:11;;;;;;;60.13;2.47;;;34.90;1.00;;;;;;5073372;28;20869;-70
2021/08/21 10:36:49;;;;;;;57.50;2.30;;;35.20;1.00;;;;;;5073587;28;20878;-68
2021/08/21 10:39:26;;;;;;;57.57;2.80;;;35.60;1.00;;;;;;5073147;28;20451;-69
2021/08/21 10:41:54;;;;;;;57.87;2.43;;;36.00;1.00;;;;;;5073512;28;20501;-69
2021/08/21 10:44:47;;;;;;;57.37;2.40;;;36.40;1.00;;;;;;5073719;28;20471;-69
2021/08/21 10:47:40;;;;;;;56.97;2.20;;;36.60;1.00;;;;;;5070737;28;20487;-69
2021/08/21 10:50:36;;;;;;;57.57;2.30;;;37.00;1.00;;;;;;5072959;28;20899;-69
2021/08/21 10:53:04;;;;;;;57.20;2.20;;;37.60;1.00;;;;;;5072873;28;20471;-69
2021/08/21 10:55:41;;;;;;;59.10;2.67;;;37.80;1.00;;;;;;5073130;28;20534;-69
2021/08/21 10:58:18;;;;;;;57.37;2.60;;;38.00;1.00;;;;;;5072832;28;20999;-69
2021/08/21 11:01:02;;;;;;;57.40;2.97;;;38.30;1.00;;;;;;5072949;28;20515;-69
2021/08/21 11:03:48;;;;;;;58.83;4.07;;;38.30;1.00;;;;;;5072768;28;20459;-69
2021/08/21 11:06:16;;;;;;;57.27;2.80;;;38.30;1.00;;;;;;5072685;28;20447;-69
2021/08/21 11:09:01;;;;;;;57.60;2.73;;;38.30;1.00;;;;;;5072921;28;20483;-69
2021/08/21 11:11:39;;;;;;;58.30;2.57;;;37.90;1.00;;;;;;5072682;28;20471;-69
2021/08/21 11:14:08;;;;;;;57.60;2.80;;;37.80;1.00;;;;;;5072785;28;20568;-69
2021/08/21 11:16:53;;;;;;;58.07;2.73;;;38.20;1.00;;;;;;5071690;28;20451;-69
2021/08/21 11:19:42;;;;;;;57.63;2.87;;;38.40;1.00;;;;;;5072376;28;20443;-69
2021/08/21 11:22:17;;;;;;;58.07;2.57;;;38.90;1.00;;;;;;5072400;28;20460;-69
2021/08/21 11:24:59;;;;;;;57.60;3.03;;;39.40;1.00;;;;;;5072722;28;20552;-69
2021/08/21 11:27:41;;;;;;;57.07;2.60;;;39.90;1.00;;;;;;5072363;28;20483;-70
2021/08/21 11:30:26;;;;;;;57.47;2.93;;;40.30;1.00;;;;;;5072220;28;20443;-70
2021/08/21 11:32:58;;;;;;;58.13;2.97;;;40.90;1.00;;;;;;5072470;28;20475;-70
2021/08/21 11:35:29;;;;;;;57.37;2.50;;;40.90;1.00;;;;;;5072401;28;20447;-70
2021/08/21 11:37:58;;;;;;;57.20;2.30;;;41.00;1.00;;;;;;5072215;28;20444;-70
2021/08/21 11:40:32;;;;;;;57.80;3.20;;;41.10;1.00;;;;;;5071825;28;20501;-70
2021/08/21 11:43:00;;;;;;;58.27;2.87;;;41.20;1.00;;;;;;5072008;28;20987;-70
2021/08/21 11:45:28;;;;;;;57.13;2.40;;;41.10;1.00;;;;;;5072338;28;20447;-70
2021/08/21 11:47:57;;;;;;;57.13;2.60;;;40.70;1.00;;;;;;5071998;28;20524;-70
2021/08/21 11:50:31;;;;;;;57.17;2.70;;;40.70;1.00;;;;;;5071874;28;20487;-70
2021/08/21 11:53:01;;;;;;;57.20;2.50;;;40.70;1.00;;;;;;5071923;28;20998;-70
2021/08/21 11:55:29;;;;;;;57.67;2.77;;;41.10;1.00;;;;;;5072278;28;20450;-70
2021/08/21 11:57:56;;;;;;;57.47;3.10;;;41.50;1.00;;;;;;5072063;28;20912;-70
2021/08/21 12:00:25;;;;;;;56.60;2.57;;;41.60;1.00;;;;;;5071814;28;20822;-70
2021/08/21 12:02:55;;;;;;;57.10;2.50;;;41.60;1.00;;;;;;5071865;28;21062;-70
2021/08/21 12:05:33;;;;;;;56.70;2.17;;;41.90;1.00;;;;;;5072050;28;20500;-70
2021/08/21 12:08:14;;;;;;;57.97;3.03;;;42.20;1.00;;;;;;5071974;28;20432;-70
2021/08/21 12:10:48;;;;;;;57.37;2.63;;;41.90;1.00;;;;;;5071808;28;20440;-70
2021/08/21 12:13:18;;;;;;;57.30;2.57;;;41.60;1.00;;;;;;5071800;28;20546;-70
2021/08/21 12:15:46;;;;;;;57.70;2.50;;;41.60;1.00;;;;;;5071858;28;20904;-70
2021/08/21 12:18:14;;;;;;;57.17;2.10;;;41.70;1.00;;;;;;5071954;28;20475;-70
2021/08/21 12:20:43;;;;;;;61.10;2.90;;;41.90;1.00;;;;;;5071596;28;20538;-70
2021/08/21 12:23:14;;;;;;;57.10;2.67;;;42.10;1.00;;;;;;5071577;28;20542;-70
2021/08/21 12:25:48;;;;;;;56.90;2.53;;;42.10;1.00;;;;;;5071858;28;20501;-70
2021/08/21 12:28:16;;;;;;;56.73;2.50;;;42.00;1.00;;;;;;5072743;28;20442;-70
2021/08/21 12:30:54;;;;;;;57.20;2.60;;;41.70;1.00;;;;;;5075514;28;20489;-70
2021/08/21 12:33:31;;;;;;;57.50;2.63;;;41.90;1.00;;;;;;5076144;28;20446;-70
2021/08/21 12:36:14;;;;;;;56.77;2.30;;;42.10;1.00;;;;;;5075738;28;20442;-70
2021/08/21 12:38:41;;;;;;;56.93;2.30;;;42.30;1.00;;;;;;5075788;28;20533;-71
2021/08/21 12:41:10;;;;;;;56.50;2.53;;;42.50;1.00;;;;;;5075223;28;20630;-70
2021/08/21 12:43:41;;;;;;;56.90;2.90;;;42.70;1.00;;;;;;5075731;28;20524;-70
2021/08/21 12:46:19;;;;;;;57.00;2.23;;;42.40;1.00;;;;;;5075665;28;20861;-70
2021/08/21 12:48:47;;;;;;;56.47;2.33;;;42.20;1.00;;;;;;5075522;28;20439;-70
2021/08/21 12:51:40;;;;;;;57.00;2.20;;;41.50;1.00;;;;;;5075394;28;20542;-70
2021/08/21 12:54:09;;;;;;;56.90;2.23;;;41.20;1.00;;;;;;5075085;28;20451;-70
2021/08/21 12:56:36;;;;;;;57.20;2.67;;;40.20;1.00;;;;;;5075324;28;20447;-70